createdAt,value
2023-04-29T00:00:58.002Z,84.90
2023-04-29T00:03:29.214Z,86.10
2023-04-29T00:05:59.348Z,87.00
2023-04-29T00:08:27.681Z,86.00
2023-04-29T00:10:55.914Z,87.17
2023-04-29T00:13:24.055Z,83.83
2023-04-29T00:15:52.003Z,86.00
2023-04-29T00:18:20.094Z,82.27
2023-04-29T00:20:48.119Z,84.83
2023-04-29T00:23:17.542Z,84.50
2023-04-29T00:25:45.579Z,83.00
2023-04-29T00:28:13.666Z,82.80
2023-04-29T00:30:41.826Z,83.57
2023-04-29T00:33:09.989Z,86.03
2023-04-29T00:35:38.126Z,88.93
2023-04-29T00:38:06.274Z,88.13
2023-04-29T00:40:36.266Z,86.60
2023-04-29T00:43:04.391Z,86.10
2023-04-29T00:45:32.451Z,84.27
2023-04-29T00:48:00.527Z,86.27
2023-04-29T00:50:29.306Z,83.50
2023-04-29T00:52:57.463Z,83.73
2023-04-29T00:55:27.303Z,85.80
2023-04-29T00:57:57.224Z,81.80
2023-04-29T01:00:26.278Z,84.67
2023-04-29T01:02:56.963Z,83.70
2023-04-29T01:05:25.592Z,82.10
2023-04-29T01:08:17.064Z,87.30
2023-04-29T01:10:53.146Z,82.37
2023-04-29T01:13:32.195Z,86.40
2023-04-29T01:16:03.876Z,85.07
2023-04-29T01:18:36.873Z,87.33
2023-04-29T01:21:05.296Z,88.30
2023-04-29T01:23:34.790Z,84.73
2023-04-29T01:26:03.100Z,84.97
2023-04-29T01:28:47.704Z,85.07
2023-04-29T01:31:20.914Z,82.20
2023-04-29T01:33:59.352Z,86.13
2023-04-29T01:36:35.698Z,86.53
2023-04-29T01:39:17.985Z,89.87
2023-04-29T01:41:52.071Z,86.73
2023-04-29T01:44:23.981Z,88.30
2023-04-29T01:46:54.147Z,89.50
2023-04-29T01:49:22.867Z,86.73
2023-04-29T01:51:50.957Z,87.13
2023-04-29T01:54:21.063Z,85.83
2023-04-29T01:56:49.667Z,87.23
2023-04-29T01:59:17.813Z,88.57
2023-04-29T02:01:45.898Z,84.57
2023-04-29T02:04:13.961Z,81.93
2023-04-29T02:06:42.029Z,80.40
2023-04-29T02:09:10.137Z,78.87
2023-04-29T02:11:40.585Z,82.47
2023-04-29T02:14:08.702Z,82.53
2023-04-29T02:16:36.801Z,81.47
2023-04-29T02:19:04.976Z,79.37
2023-04-29T02:21:33.034Z,79.83
2023-04-29T02:24:01.091Z,83.63
2023-04-29T02:26:29.236Z,83.03
2023-04-29T02:28:58.684Z,79.93
2023-04-29T02:31:26.940Z,83.23
2023-04-29T02:33:55.580Z,83.40
2023-04-29T02:36:24.682Z,82.67
2023-04-29T02:38:55.170Z,81.23
2023-04-29T02:41:23.633Z,83.93
2023-04-29T02:43:51.729Z,82.27
2023-04-29T02:46:21.327Z,82.13
2023-04-29T02:48:49.619Z,79.50
2023-04-29T02:51:17.634Z,78.97
2023-04-29T02:53:45.781Z,76.13
2023-04-29T02:56:13.917Z,78.13
2023-04-29T02:58:42.339Z,78.60
2023-04-29T03:01:10.866Z,77.67
2023-04-29T03:03:40.527Z,77.80
2023-04-29T03:06:08.773Z,80.30
2023-04-29T03:08:36.877Z,78.00
2023-04-29T03:11:04.952Z,78.50
2023-04-29T03:13:33.137Z,79.57
2023-04-29T03:16:01.738Z,77.57
2023-04-29T03:18:29.825Z,76.20
2023-04-29T03:20:59.856Z,80.90
2023-04-29T03:23:28.174Z,78.60
2023-04-29T03:25:56.844Z,79.43
2023-04-29T03:28:26.023Z,80.80
2023-04-29T03:30:54.181Z,77.07
2023-04-29T03:33:22.283Z,78.50
2023-04-29T03:35:50.332Z,81.13
2023-04-29T03:38:20.010Z,82.73
2023-04-29T03:40:48.137Z,83.20
2023-04-29T03:43:16.221Z,85.67
2023-04-29T03:45:44.347Z,83.20
2023-04-29T03:48:13.259Z,83.33
2023-04-29T03:50:41.497Z,83.83
2023-04-29T03:53:09.706Z,82.80
2023-04-29T03:55:39.207Z,82.80
2023-04-29T03:58:07.348Z,82.30
2023-04-29T04:00:35.563Z,82.80
2023-04-29T04:03:05.523Z,76.63
2023-04-29T04:05:34.184Z,77.93
2023-04-29T04:08:02.312Z,74.67
2023-04-29T04:10:30.600Z,75.70
2023-04-29T04:13:00.121Z,78.20
2023-04-29T04:15:28.058Z,82.53
2023-04-29T04:17:56.213Z,87.83
2023-04-29T04:20:24.345Z,89.77
2023-04-29T04:22:52.405Z,88.23
2023-04-29T04:25:20.487Z,87.60
2023-04-29T04:27:48.739Z,87.33
2023-04-29T04:30:18.355Z,87.70
2023-04-29T04:32:46.627Z,90.07
2023-04-29T04:35:14.935Z,90.60
2023-04-29T04:37:43.001Z,89.13
2023-04-29T04:40:12.388Z,85.47
2023-04-29T04:42:40.508Z,85.37
2023-04-29T04:45:11.431Z,82.63
2023-04-29T04:47:42.363Z,78.00
2023-04-29T04:50:11.009Z,70.97
2023-04-29T04:52:39.103Z,70.30
2023-04-29T04:55:08.039Z,63.20
2023-04-29T04:57:36.167Z,60.67
2023-04-29T05:00:05.231Z,59.13
2023-04-29T05:02:33.481Z,56.17
2023-04-29T05:05:03.004Z,55.00
2023-04-29T05:07:31.287Z,58.87
2023-04-29T05:09:59.620Z,52.73
2023-04-29T05:12:30.829Z,52.53
2023-04-29T05:14:59.315Z,53.30
2023-04-29T05:17:27.776Z,54.20
2023-04-29T05:19:56.091Z,53.23
2023-04-29T05:22:25.503Z,53.00
2023-04-29T05:24:54.488Z,54.80
2023-04-29T05:27:22.553Z,50.50
2023-04-29T05:29:51.104Z,52.80
2023-04-29T05:32:19.318Z,49.97
2023-04-29T05:34:47.406Z,47.10
2023-04-29T05:37:15.839Z,48.47
2023-04-29T05:39:45.397Z,46.37
2023-04-29T05:42:13.465Z,47.90
2023-04-29T05:44:41.626Z,48.63
2023-04-29T05:47:09.781Z,51.30
2023-04-29T05:49:37.847Z,49.03
2023-04-29T05:52:06.709Z,51.83
2023-04-29T05:54:35.357Z,51.10
2023-04-29T05:57:05.382Z,49.03
2023-04-29T05:59:34.056Z,47.70
2023-04-29T06:02:02.315Z,43.67
2023-04-29T06:04:30.657Z,41.57
2023-04-29T06:06:59.079Z,40.23
2023-04-29T06:09:28.197Z,40.70
2023-04-29T06:11:56.416Z,39.30
2023-04-29T06:14:26.026Z,35.63
2023-04-29T06:16:54.473Z,33.73
2023-04-29T06:19:22.635Z,33.87
2023-04-29T06:21:50.789Z,33.37
2023-04-29T06:24:18.942Z,32.27
2023-04-29T06:26:47.104Z,31.53
2023-04-29T06:29:15.405Z,31.07
2023-04-29T06:31:44.906Z,31.17
2023-04-29T06:34:13.139Z,32.23
2023-04-29T06:36:41.692Z,31.23
2023-04-29T06:39:09.841Z,30.73
2023-04-29T06:41:38.196Z,29.13
2023-04-29T06:44:06.446Z,29.70
2023-04-29T06:46:34.643Z,28.63
2023-04-29T06:49:04.135Z,28.50
2023-04-29T06:51:33.474Z,27.50
2023-04-29T06:54:01.645Z,27.03
2023-04-29T06:56:29.849Z,29.10
2023-04-29T06:58:58.012Z,26.70
2023-04-29T07:01:26.130Z,26.87
2023-04-29T07:03:54.480Z,26.80
2023-04-29T07:06:24.232Z,26.97
2023-04-29T07:08:54.793Z,41.67
2023-04-29T07:11:26.206Z,24.43
2023-04-29T07:13:55.188Z,32.70
2023-04-29T07:16:26.613Z,24.97
2023-04-29T07:18:55.883Z,25.10
2023-04-29T07:21:25.450Z,23.07
2023-04-29T07:23:54.994Z,24.20
2023-04-29T07:26:23.177Z,23.00
2023-04-29T07:28:51.286Z,22.70
2023-04-29T07:31:19.478Z,22.90
2023-04-29T07:33:47.941Z,23.33
2023-04-29T07:36:17.080Z,24.00
2023-04-29T07:38:46.703Z,21.57
2023-04-29T07:41:14.854Z,21.47
2023-04-29T07:43:42.987Z,22.00
2023-04-29T07:46:11.112Z,21.50
2023-04-29T07:48:40.059Z,20.20
2023-04-29T07:51:08.927Z,21.33
2023-04-29T07:53:37.027Z,19.80
2023-04-29T07:56:08.723Z,21.53
2023-04-29T07:58:36.931Z,20.70
2023-04-29T08:01:09.290Z,20.30
2023-04-29T08:03:40.786Z,20.60
2023-04-29T08:06:09.986Z,20.80
2023-04-29T08:08:38.181Z,20.47
2023-04-29T08:11:07.805Z,21.37
2023-04-29T08:13:35.957Z,19.97
2023-04-29T08:16:04.133Z,21.53
2023-04-29T08:18:32.432Z,21.80
2023-04-29T08:21:01.052Z,20.73
2023-04-29T08:23:29.264Z,20.30
2023-04-29T08:25:57.657Z,21.27
2023-04-29T08:28:27.677Z,22.30
2023-04-29T08:30:56.602Z,22.07
2023-04-29T08:33:24.886Z,21.03
2023-04-29T08:36:00.069Z,20.90
2023-04-29T08:38:28.424Z,20.47
2023-04-29T08:40:56.898Z,20.40
2023-04-29T08:43:25.506Z,20.20
2023-04-29T08:45:55.233Z,22.37
2023-04-29T08:48:23.998Z,20.40
2023-04-29T08:50:52.262Z,20.83
2023-04-29T08:53:21.491Z,20.60
2023-04-29T08:55:49.996Z,21.53
2023-04-29T08:58:18.213Z,20.80
2023-04-29T09:00:46.858Z,21.20
2023-04-29T09:03:22.045Z,21.43
2023-04-29T09:05:54.002Z,20.70
2023-04-29T09:08:23.900Z,20.70
2023-04-29T09:10:53.119Z,20.20
2023-04-29T09:13:25.695Z,20.80
2023-04-29T09:15:53.844Z,20.10
2023-04-29T09:18:45.670Z,20.70
2023-04-29T09:21:21.693Z,20.33
2023-04-29T09:23:52.218Z,19.93
2023-04-29T09:26:20.663Z,20.00
2023-04-29T09:28:49.855Z,20.10
2023-04-29T09:31:29.070Z,19.57
2023-04-29T09:33:59.105Z,19.60
2023-04-29T09:36:41.830Z,20.80
2023-04-29T09:39:12.583Z,20.90
2023-04-29T09:42:00.196Z,20.70
2023-04-29T09:44:32.915Z,20.70
2023-04-29T09:47:03.913Z,20.60
2023-04-29T09:49:35.768Z,21.17
2023-04-29T09:52:05.987Z,21.10
2023-04-29T09:54:36.334Z,20.53
2023-04-29T09:57:06.917Z,20.60
2023-04-29T09:59:36.447Z,19.73
2023-04-29T10:02:16.460Z,19.63
2023-04-29T10:04:47.833Z,20.30
2023-04-29T10:07:17.926Z,20.60
2023-04-29T10:09:47.651Z,20.27
2023-04-29T10:12:18.405Z,20.33
2023-04-29T10:14:52.054Z,20.47
2023-04-29T10:17:27.640Z,22.07
2023-04-29T10:20:05.770Z,20.40
2023-04-29T10:22:37.732Z,20.33
2023-04-29T10:25:08.727Z,19.97
2023-04-29T10:27:38.615Z,19.57
2023-04-29T10:30:11.337Z,20.60
2023-04-29T10:32:50.611Z,19.73
2023-04-29T10:35:24.492Z,21.97
2023-04-29T10:37:53.744Z,19.40
2023-04-29T10:40:28.790Z,19.40
2023-04-29T10:42:56.953Z,19.60
2023-04-29T10:45:27.564Z,19.53
2023-04-29T10:48:18.955Z,19.40
2023-04-29T10:51:04.884Z,19.20
2023-04-29T10:53:33.297Z,20.20
2023-04-29T10:56:09.328Z,19.80
2023-04-29T10:58:39.126Z,20.70
2023-04-29T11:01:08.359Z,20.30
2023-04-29T11:03:59.488Z,20.03
2023-04-29T11:06:53.620Z,19.30
2023-04-29T11:09:25.534Z,19.80
2023-04-29T11:12:05.381Z,19.40
2023-04-29T11:14:37.672Z,19.40
2023-04-29T11:17:09.668Z,18.77
2023-04-29T11:19:42.309Z,18.50
2023-04-29T11:22:25.361Z,19.10
2023-04-29T11:24:56.213Z,18.90
2023-04-29T11:27:26.485Z,18.20
2023-04-29T11:29:59.374Z,18.70
2023-04-29T11:32:28.810Z,18.90
2023-04-29T11:35:07.921Z,19.43
2023-04-29T11:37:37.663Z,19.30
2023-04-29T11:40:07.872Z,19.20
2023-04-29T11:42:37.311Z,19.30
2023-04-29T11:45:05.741Z,18.63
2023-04-29T11:47:33.881Z,20.37
2023-04-29T11:50:06.223Z,18.80
2023-04-29T11:52:34.510Z,17.93
2023-04-29T11:55:04.085Z,18.80
2023-04-29T11:57:32.364Z,18.33
2023-04-29T12:00:01.228Z,18.30
2023-04-29T12:02:32.925Z,18.10
2023-04-29T12:05:02.440Z,17.80
2023-04-29T12:07:30.796Z,18.60
2023-04-29T12:10:00.128Z,18.40
2023-04-29T12:12:31.730Z,18.60
2023-04-29T12:14:59.870Z,18.30
2023-04-29T12:17:28.098Z,18.60
2023-04-29T12:19:56.398Z,18.40
2023-04-29T12:22:24.468Z,18.80
2023-04-29T12:24:54.629Z,19.23
2023-04-29T12:27:22.857Z,19.20
2023-04-29T12:29:53.600Z,18.93
2023-04-29T12:32:25.289Z,18.77
2023-04-29T12:34:53.869Z,19.20
2023-04-29T12:37:24.441Z,18.40
2023-04-29T12:39:52.836Z,18.87
2023-04-29T12:42:20.938Z,19.07
2023-04-29T12:44:49.709Z,18.97
2023-04-29T12:47:19.309Z,18.67
2023-04-29T12:49:50.035Z,18.30
2023-04-29T12:52:18.154Z,18.53
2023-04-29T12:54:46.203Z,18.93
2023-04-29T12:57:14.509Z,19.20
2023-04-29T12:59:42.631Z,19.30
2023-04-29T13:02:10.799Z,19.27
2023-04-29T13:04:40.867Z,20.07
2023-04-29T13:07:10.961Z,19.80
2023-04-29T13:09:41.721Z,19.60
2023-04-29T13:12:11.329Z,18.73
2023-04-29T13:14:39.784Z,18.97
2023-04-29T13:17:08.668Z,18.80
2023-04-29T13:19:50.618Z,20.43
2023-04-29T13:22:22.682Z,19.50
2023-04-29T13:24:51.619Z,19.30
2023-04-29T13:27:20.982Z,19.40
2023-04-29T13:29:49.798Z,20.00
2023-04-29T13:32:19.066Z,21.33
2023-04-29T13:34:48.041Z,19.37
2023-04-29T13:37:17.416Z,19.47
2023-04-29T13:39:48.082Z,20.97
2023-04-29T13:42:16.771Z,19.40
2023-04-29T13:44:52.305Z,19.80
2023-04-29T13:47:26.024Z,19.10
2023-04-29T14:00:25.352Z,20.00
2023-04-29T14:05:29.333Z,19.40
2023-04-29T14:07:57.961Z,19.20
2023-04-29T14:10:27.799Z,19.30
2023-04-29T14:12:56.748Z,19.50
2023-04-29T14:15:25.608Z,20.00
2023-04-29T14:17:55.319Z,20.23
2023-04-29T14:20:24.242Z,19.13
2023-04-29T14:22:53.210Z,20.60
2023-04-29T14:25:22.370Z,19.47
2023-04-29T14:27:52.508Z,19.70
2023-04-29T14:30:21.684Z,19.30
2023-04-29T14:32:50.162Z,19.43
2023-04-29T14:35:18.910Z,19.60
2023-04-29T14:37:47.363Z,20.30
2023-04-29T14:40:16.144Z,21.80
2023-04-29T14:42:45.171Z,20.50
2023-04-29T14:45:15.293Z,26.30
2023-04-29T14:47:43.958Z,19.80
2023-04-29T14:50:12.621Z,20.07
2023-04-29T14:52:41.372Z,19.03
2023-04-29T14:55:10.330Z,19.10
2023-04-29T14:57:38.873Z,19.37
2023-04-29T15:00:09.020Z,19.13
2023-04-29T15:02:39.531Z,22.00
2023-04-29T15:05:08.819Z,21.97
2023-04-29T15:07:37.340Z,19.90
2023-04-29T15:10:09.543Z,21.17
2023-04-29T15:12:37.940Z,19.70
2023-04-29T15:15:07.367Z,19.53
2023-04-29T15:17:35.922Z,20.47
2023-04-29T15:20:07.625Z,20.33
2023-04-29T15:22:36.099Z,20.37
2023-04-29T15:25:04.743Z,19.70
2023-04-29T15:27:34.722Z,20.70
2023-04-29T15:30:03.454Z,19.40
2023-04-29T15:32:32.596Z,19.50
2023-04-29T15:35:01.239Z,20.23
2023-04-29T15:37:31.608Z,19.90
2023-04-29T15:40:00.428Z,20.97
2023-04-29T15:42:28.715Z,19.67
2023-04-29T15:44:56.815Z,20.20
2023-04-29T15:47:24.954Z,20.40
2023-04-29T15:49:53.167Z,20.00
2023-04-29T15:52:21.323Z,20.00
2023-04-29T15:54:50.854Z,19.80
2023-04-29T15:57:19.002Z,19.30
2023-04-29T15:59:47.116Z,19.73
2023-04-29T16:02:15.352Z,20.17
2023-04-29T16:04:43.560Z,19.93
2023-04-29T16:07:12.384Z,19.90
2023-04-29T16:09:40.452Z,19.83
2023-04-29T16:12:11.612Z,20.27
2023-04-29T16:14:39.928Z,20.73
2023-04-29T16:17:08.037Z,20.70
2023-04-29T16:19:37.032Z,20.17
2023-04-29T16:22:19.305Z,19.93
2023-04-29T16:24:49.316Z,20.00
2023-04-29T16:27:19.402Z,20.30
2023-04-29T16:29:47.811Z,20.30
2023-04-29T16:32:15.889Z,19.77
2023-04-29T16:34:43.951Z,19.90
2023-04-29T16:37:12.678Z,19.30
2023-04-29T16:39:41.134Z,21.23
2023-04-29T16:42:09.256Z,19.10
2023-04-29T16:44:38.618Z,19.53
2023-04-29T16:47:06.698Z,19.53
2023-04-29T16:49:34.814Z,19.60
2023-04-29T16:52:03.126Z,19.13
2023-04-29T16:54:31.522Z,19.17
2023-04-29T16:56:59.583Z,19.00
2023-04-29T16:59:28.185Z,19.40
2023-04-29T17:01:57.754Z,20.63
2023-04-29T17:04:25.951Z,19.07
2023-04-29T17:06:54.545Z,21.73
2023-04-29T17:09:25.857Z,19.13
2023-04-29T17:11:53.988Z,19.47
2023-04-29T17:14:22.417Z,19.60
2023-04-29T17:16:50.639Z,21.70
2023-04-29T17:19:20.427Z,19.23
2023-04-29T17:21:48.496Z,18.90
2023-04-29T17:24:16.957Z,19.20
2023-04-29T17:26:45.056Z,19.80
2023-04-29T17:29:13.199Z,19.80
2023-04-29T17:31:54.264Z,19.80
2023-04-29T17:34:25.719Z,20.13
2023-04-29T17:36:54.684Z,21.80
2023-04-29T17:39:23.123Z,20.67
2023-04-29T17:41:51.181Z,20.00
2023-04-29T17:44:20.647Z,20.37
2023-04-29T17:46:50.714Z,19.40
2023-04-29T17:49:18.843Z,19.00
2023-04-29T17:51:48.224Z,19.20
2023-04-29T17:54:16.364Z,18.87
2023-04-29T17:56:44.536Z,18.80
2023-04-29T17:59:12.623Z,18.80
2023-04-29T18:01:40.878Z,20.23
2023-04-29T18:04:09.290Z,18.50
2023-04-29T18:06:38.012Z,41.27
2023-04-29T18:09:08.466Z,18.90
2023-04-29T18:11:37.542Z,18.30
2023-04-29T18:14:06.056Z,18.30
2023-04-29T18:16:34.713Z,18.30
2023-04-29T18:19:03.623Z,18.33
2023-04-29T18:21:32.191Z,18.17
2023-04-29T18:24:03.233Z,18.33
2023-04-29T18:26:33.404Z,18.40
2023-04-29T18:29:01.961Z,18.67
2023-04-29T18:31:30.609Z,18.37
2023-04-29T18:33:59.181Z,18.10
2023-04-29T18:36:28.468Z,18.60
2023-04-29T18:38:57.203Z,18.70
2023-04-29T18:41:25.715Z,17.80
2023-04-29T18:43:55.691Z,18.03
2023-04-29T18:46:24.531Z,17.80
2023-04-29T18:48:54.025Z,17.40
2023-04-29T18:51:22.765Z,17.63
2023-04-29T18:53:51.465Z,17.60
2023-04-29T18:56:20.022Z,18.13
2023-04-29T18:58:49.648Z,17.67
2023-04-29T19:01:19.705Z,17.90
2023-04-29T19:03:48.313Z,17.73
2023-04-29T19:06:16.755Z,17.93
2023-04-29T19:08:45.091Z,17.70
2023-04-29T19:11:13.717Z,18.33
2023-04-29T19:13:42.563Z,18.83
2023-04-29T19:16:10.811Z,18.43
2023-04-29T19:18:40.564Z,18.17
2023-04-29T19:21:10.231Z,18.60
2023-04-29T19:23:39.010Z,18.10
2023-04-29T19:26:08.566Z,18.07
2023-04-29T19:28:36.778Z,18.40
2023-04-29T19:31:04.995Z,19.07
2023-04-29T19:33:33.236Z,19.10
2023-04-29T19:36:04.096Z,19.00
2023-04-29T19:38:32.175Z,18.70
2023-04-29T19:41:00.438Z,19.03
2023-04-29T19:43:28.603Z,19.33
2023-04-29T19:45:56.700Z,19.10
2023-04-29T19:48:24.854Z,19.40
2023-04-29T19:50:52.959Z,19.90
2023-04-29T19:53:22.513Z,20.00
2023-04-29T19:55:51.755Z,18.87
2023-04-29T19:58:20.120Z,18.57
2023-04-29T20:00:48.464Z,19.20
2023-04-29T20:03:16.920Z,18.77
2023-04-29T20:05:45.085Z,19.40
2023-04-29T20:08:13.164Z,18.70
2023-04-29T20:10:43.681Z,18.73
2023-04-29T20:13:11.730Z,18.67
2023-04-29T20:15:39.657Z,20.63
2023-04-29T20:18:07.908Z,19.00
2023-04-29T20:20:36.126Z,19.73
2023-04-29T20:23:04.434Z,19.60
2023-04-29T20:25:33.051Z,19.77
2023-04-29T20:28:02.740Z,19.63
2023-04-29T20:30:30.802Z,19.93
2023-04-29T20:32:58.920Z,19.77
2023-04-29T20:35:27.070Z,20.20
2023-04-29T20:37:55.209Z,20.30
2023-04-29T20:40:23.650Z,20.40
2023-04-29T20:42:51.849Z,19.87
2023-04-29T20:45:22.226Z,20.00
2023-04-29T20:47:50.373Z,20.07
2023-04-29T20:50:18.449Z,20.07
2023-04-29T20:52:49.180Z,20.23
2023-04-29T20:55:17.601Z,20.73
2023-04-29T20:57:45.618Z,20.40
2023-04-29T21:00:14.315Z,20.40
2023-04-29T21:02:43.828Z,21.27
2023-04-29T21:05:11.986Z,21.37
2023-04-29T21:07:40.119Z,41.60
2023-04-29T21:10:08.643Z,21.17
2023-04-29T21:12:36.769Z,21.33
2023-04-29T21:15:04.890Z,21.73
2023-04-29T21:17:33.176Z,22.77
2023-04-29T21:20:02.633Z,21.37
2023-04-29T21:22:30.769Z,21.00
2023-04-29T21:24:58.825Z,22.17
2023-04-29T21:27:26.985Z,21.50
2023-04-29T21:29:55.274Z,22.30
2023-04-29T21:32:24.443Z,23.60
2023-04-29T21:34:52.536Z,22.93
2023-04-29T21:37:21.987Z,23.07
2023-04-29T21:39:50.751Z,22.73
2023-04-29T21:42:22.445Z,23.27
2023-04-29T21:44:50.512Z,23.90
2023-04-29T21:47:18.586Z,23.77
2023-04-29T21:49:46.825Z,39.47
2023-04-29T21:52:14.988Z,24.03
2023-04-29T21:54:44.788Z,24.63
2023-04-29T21:57:13.165Z,24.23
2023-04-29T21:59:41.252Z,24.80
2023-04-29T22:02:21.903Z,26.00
2023-04-29T22:04:51.374Z,25.07
2023-04-29T22:07:19.801Z,25.57
2023-04-29T22:09:50.484Z,26.53
2023-04-29T22:12:19.045Z,28.27
2023-04-29T22:14:47.424Z,27.37
2023-04-29T22:17:15.749Z,28.23
2023-04-29T22:19:43.901Z,28.97
2023-04-29T22:22:11.938Z,31.73
2023-04-29T22:24:39.992Z,32.10
2023-04-29T22:27:09.459Z,33.93
2023-04-29T22:29:37.656Z,33.47
2023-04-29T22:32:06.333Z,35.90
2023-04-29T22:34:34.549Z,36.30
2023-04-29T22:37:02.639Z,37.73
2023-04-29T22:39:30.672Z,40.67
2023-04-29T22:41:58.772Z,43.10
2023-04-29T22:44:28.181Z,44.90
2023-04-29T22:46:56.209Z,46.00
2023-04-29T22:49:25.095Z,48.63
2023-04-29T22:51:53.173Z,51.10
2023-04-29T22:54:21.352Z,52.93
2023-04-29T22:56:49.487Z,53.77
2023-04-29T22:59:17.536Z,58.73
2023-04-29T23:01:47.191Z,61.47
2023-04-29T23:04:15.819Z,65.13
2023-04-29T23:06:44.024Z,67.00
2023-04-29T23:09:12.179Z,69.87
2023-04-29T23:11:40.333Z,71.10
2023-04-29T23:14:08.663Z,70.50
2023-04-29T23:16:36.751Z,73.70
2023-04-29T23:19:06.227Z,75.60
2023-04-29T23:21:34.266Z,76.00
2023-04-29T23:24:02.329Z,77.73
2023-04-29T23:26:30.523Z,78.97
2023-04-29T23:28:58.536Z,82.10
2023-04-29T23:31:26.696Z,84.00
2023-04-29T23:33:54.912Z,83.30
2023-04-29T23:36:24.428Z,88.63
2023-04-29T23:38:52.514Z,88.03
2023-04-29T23:41:20.849Z,90.80
2023-04-29T23:43:48.952Z,91.70
2023-04-29T23:46:17.091Z,91.00
2023-04-29T23:48:45.217Z,93.97
2023-04-29T23:51:13.432Z,94.47
2023-04-29T23:53:42.919Z,96.40
2023-04-29T23:56:11.156Z,101.27
2023-04-29T23:58:39.238Z,99.63
